createdAt,value
2022-09-14T08:03:36.443Z,31.80
2022-09-14T08:06:07.988Z,31.14
2022-09-14T08:08:38.219Z,30.88
2022-09-14T08:11:08.446Z,30.29
2022-09-14T08:13:35.736Z,30.05
2022-09-14T08:16:09.951Z,29.85
2022-09-14T08:18:38.485Z,29.37
2022-09-14T08:21:23.793Z,28.91
2022-09-14T08:23:58.594Z,29.17
2022-09-14T08:26:27.328Z,30.31
2022-09-14T08:28:55.764Z,31.79
2022-09-14T08:31:27.186Z,32.38
2022-09-14T08:33:58.172Z,32.07
2022-09-14T08:36:27.811Z,31.76
2022-09-14T08:38:55.297Z,32.10
2022-09-14T08:41:29.739Z,31.10
2022-09-14T08:44:14.357Z,30.55
2022-09-14T08:47:03.234Z,30.42
2022-09-14T08:49:44.378Z,30.37
2022-09-14T08:52:25.613Z,30.29
2022-09-14T08:54:58.571Z,31.36
2022-09-14T08:57:40.674Z,32.54
2022-09-14T09:00:24.923Z,32.61
2022-09-14T09:03:29.637Z,33.53
2022-09-14T09:06:15.744Z,33.40
2022-09-14T09:09:02.304Z,33.50
2022-09-14T09:11:37.886Z,33.27
2022-09-14T09:14:19.336Z,33.10
2022-09-14T09:16:50.356Z,32.88
2022-09-14T09:19:32.961Z,32.62
2022-09-14T09:22:15.878Z,32.90
2022-09-14T09:24:47.724Z,32.45
2022-09-14T09:27:28.274Z,31.52
2022-09-14T09:29:55.870Z,30.80
2022-09-14T09:32:27.413Z,30.40
2022-09-14T09:35:24.727Z,30.25
2022-09-14T09:37:58.477Z,30.15
2022-09-14T09:40:36.243Z,29.98
2022-09-14T09:43:04.283Z,29.70
2022-09-14T09:45:50.916Z,29.88
2022-09-14T09:48:22.300Z,29.80
2022-09-14T09:51:04.758Z,29.61
2022-09-14T09:53:34.390Z,29.54
2022-09-14T09:56:02.000Z,29.60
2022-09-14T09:58:38.290Z,29.88
2022-09-14T10:01:17.475Z,30.02
2022-09-14T10:04:00.463Z,29.57
2022-09-14T10:06:27.701Z,29.56
2022-09-14T10:08:57.481Z,29.74
2022-09-14T10:11:37.688Z,29.74
2022-09-14T10:14:18.688Z,29.80
2022-09-14T10:16:46.151Z,29.71
2022-09-14T10:19:22.576Z,29.36
2022-09-14T10:22:31.254Z,29.38
2022-09-14T10:25:20.251Z,29.58
2022-09-14T10:27:56.680Z,29.43
2022-09-14T10:30:34.562Z,29.77
2022-09-14T10:33:15.139Z,29.74
2022-09-14T10:35:47.405Z,29.74
2022-09-14T10:38:36.655Z,29.68
2022-09-14T10:41:21.944Z,29.50
2022-09-14T10:44:11.583Z,29.26
2022-09-14T10:46:48.462Z,29.17
2022-09-14T10:52:22.000Z,28.95
2022-09-14T10:55:32.137Z,28.72
2022-09-14T10:58:25.791Z,28.76
2022-09-14T11:01:29.471Z,28.89
2022-09-14T11:04:28.909Z,28.88
2022-09-14T11:07:32.824Z,28.78
2022-09-14T11:09:59.991Z,28.92
2022-09-14T11:12:55.616Z,28.98
2022-09-14T11:15:41.332Z,29.25
2022-09-14T11:18:27.037Z,29.17
2022-09-14T11:21:03.918Z,29.12
2022-09-14T11:24:02.213Z,29.19
2022-09-14T11:26:42.493Z,29.36
2022-09-14T11:29:18.959Z,29.38
2022-09-14T11:32:20.505Z,29.31
2022-09-14T11:34:56.125Z,29.47
2022-09-14T11:41:47.526Z,29.25
2022-09-14T11:44:22.085Z,29.16
2022-09-14T11:47:00.776Z,29.30
2022-09-14T11:49:46.387Z,29.34
2022-09-14T11:52:28.192Z,29.17
2022-09-14T11:54:56.366Z,29.22
2022-09-14T11:57:26.682Z,29.34
2022-09-14T12:00:24.445Z,29.38
2022-09-14T12:03:18.652Z,29.51
2022-09-14T12:05:47.746Z,29.58
2022-09-14T12:08:24.176Z,29.31
2022-09-14T12:11:09.589Z,29.30
2022-09-14T12:13:37.918Z,29.10
2022-09-14T12:16:09.647Z,29.09
2022-09-14T12:18:38.982Z,28.98
2022-09-14T12:21:08.280Z,29.03
2022-09-14T12:27:54.442Z,28.79
2022-09-14T12:30:40.996Z,28.58
2022-09-14T12:33:34.027Z,28.64
2022-09-14T12:36:04.339Z,28.58
2022-09-14T12:39:04.174Z,28.50
2022-09-14T12:41:37.140Z,28.34
2022-09-14T12:44:04.979Z,28.51
2022-09-14T12:46:38.676Z,28.64
2022-09-14T12:49:29.641Z,28.78
2022-09-14T12:52:03.539Z,29.05
2022-09-14T12:54:41.477Z,29.20
2022-09-14T12:57:28.265Z,28.96
2022-09-14T13:00:13.517Z,28.98
2022-09-14T13:02:47.632Z,29.13
2022-09-14T13:05:18.098Z,28.98
2022-09-14T13:07:46.014Z,28.96
2022-09-14T13:10:24.594Z,28.88
2022-09-14T13:12:52.147Z,28.75
2022-09-14T13:15:23.193Z,28.68
2022-09-14T13:18:03.564Z,28.78
2022-09-14T13:20:33.416Z,28.65
2022-09-14T13:23:01.287Z,28.60
2022-09-14T13:25:38.049Z,28.58
2022-09-14T13:28:11.445Z,28.50
2022-09-14T13:30:39.071Z,28.43
2022-09-14T13:33:06.186Z,28.34
2022-09-14T13:35:39.634Z,28.16
2022-09-14T13:38:29.616Z,28.12
2022-09-14T13:41:09.371Z,28.09
2022-09-14T13:43:37.144Z,28.17
2022-09-14T13:46:07.577Z,28.12
2022-09-14T13:48:40.139Z,28.02
2022-09-14T13:51:08.767Z,27.99
2022-09-14T13:53:37.928Z,27.95
2022-09-14T13:56:17.374Z,27.78
2022-09-14T13:58:45.675Z,27.70
2022-09-14T14:01:25.444Z,27.63
2022-09-14T14:03:55.398Z,27.54
2022-09-14T14:06:25.443Z,27.35
2022-09-14T14:09:06.693Z,27.33
2022-09-14T14:11:35.664Z,27.35
2022-09-14T14:14:30.151Z,27.26
2022-09-14T14:17:30.328Z,27.30
2022-09-14T14:20:00.300Z,27.31
2022-09-14T14:22:35.603Z,27.37
2022-09-14T14:25:19.082Z,27.30
2022-09-14T14:27:47.921Z,27.24
2022-09-14T14:30:21.339Z,27.15
2022-09-14T14:32:53.667Z,27.11
2022-09-14T14:35:24.381Z,27.10
2022-09-14T14:37:51.808Z,27.10
2022-09-14T14:40:19.843Z,27.08
2022-09-14T14:42:49.171Z,27.12
2022-09-14T14:45:19.520Z,27.14
2022-09-14T14:47:48.080Z,27.15
2022-09-14T14:50:17.040Z,27.14
2022-09-14T14:52:44.243Z,27.30
2022-09-14T14:55:11.375Z,27.33
2022-09-14T14:57:38.989Z,27.24
2022-09-14T15:00:13.175Z,27.35
2022-09-14T15:02:40.278Z,27.35
2022-09-14T15:05:07.662Z,27.33
2022-09-14T15:07:37.718Z,27.38
2022-09-14T15:10:06.843Z,27.45
2022-09-14T15:12:36.563Z,27.47
2022-09-14T15:15:03.922Z,27.33
2022-09-14T15:17:31.014Z,27.24
2022-09-14T15:19:58.020Z,27.21
2022-09-14T15:22:25.315Z,27.17
2022-09-14T15:24:52.404Z,27.12
2022-09-14T15:27:19.489Z,27.10
2022-09-14T15:29:46.568Z,27.03
2022-09-14T15:32:13.720Z,27.06
2022-09-14T15:34:41.324Z,27.04
2022-09-14T15:37:09.286Z,26.97
2022-09-14T15:39:36.778Z,27.00
2022-09-14T15:42:04.439Z,26.99
2022-09-14T15:44:32.996Z,27.03
2022-09-14T15:47:00.174Z,26.96
2022-09-14T15:49:27.602Z,27.00
2022-09-14T15:51:56.309Z,26.97
2022-09-14T15:54:25.313Z,27.00
2022-09-14T15:56:55.310Z,26.84
2022-09-14T15:59:23.185Z,26.91
2022-09-14T16:01:50.663Z,26.78
2022-09-14T16:04:18.757Z,26.73
2022-09-14T16:06:46.620Z,26.72
2022-09-14T16:09:15.521Z,26.64
2022-09-14T16:11:44.039Z,26.56
2022-09-14T16:14:11.594Z,26.52
2022-09-14T16:16:39.481Z,26.41
2022-09-14T16:19:12.851Z,26.39
2022-09-14T16:21:41.436Z,26.28
2022-09-14T16:24:12.716Z,26.22
2022-09-14T16:26:40.623Z,26.17
2022-09-14T16:29:11.574Z,26.15
2022-09-14T16:31:41.220Z,26.02
2022-09-14T16:34:14.632Z,25.93
2022-09-14T16:36:43.074Z,25.84
2022-09-14T16:39:16.343Z,25.76
2022-09-14T16:41:44.082Z,25.73
2022-09-14T16:44:15.073Z,25.63
2022-09-14T16:46:42.495Z,25.63
2022-09-14T16:49:09.768Z,25.50
2022-09-14T16:51:36.913Z,25.45
2022-09-14T16:54:04.499Z,25.40
2022-09-14T16:56:35.987Z,25.38
2022-09-14T16:59:04.711Z,25.28
2022-09-14T17:01:43.361Z,25.19
2022-09-14T17:04:15.979Z,25.09
2022-09-14T17:06:44.736Z,25.07
2022-09-14T17:09:15.562Z,25.04
2022-09-14T17:11:43.108Z,24.96
2022-09-14T17:14:14.727Z,24.88
2022-09-14T17:16:42.157Z,24.85
2022-09-14T17:19:10.215Z,24.81
2022-09-14T17:21:40.659Z,24.75
2022-09-14T17:24:08.458Z,24.71
2022-09-14T17:26:38.627Z,24.67
2022-09-14T17:29:07.012Z,24.61
2022-09-14T17:31:40.773Z,24.59
2022-09-14T17:34:10.339Z,24.54
2022-09-14T17:36:38.237Z,24.49
2022-09-14T17:39:11.772Z,24.41
2022-09-14T17:41:40.646Z,24.34
2022-09-14T17:44:10.978Z,24.36
2022-09-14T17:46:46.044Z,24.29
2022-09-14T17:49:18.509Z,24.29
2022-09-14T17:51:45.744Z,24.30
2022-09-14T17:54:13.174Z,24.25
2022-09-14T17:56:40.677Z,24.16
2022-09-14T17:59:11.883Z,24.20
2022-09-14T18:01:39.790Z,24.10
2022-09-14T18:04:12.024Z,24.04
2022-09-14T18:06:42.264Z,24.05
2022-09-14T18:09:15.380Z,24.01
2022-09-14T18:11:43.227Z,24.02
2022-09-14T18:14:12.887Z,24.05
2022-09-14T18:16:41.066Z,24.01
2022-09-14T18:19:08.439Z,23.99
2022-09-14T18:21:35.784Z,24.01
2022-09-14T18:24:03.369Z,23.94
2022-09-14T18:26:30.555Z,23.94
2022-09-14T18:28:58.661Z,23.92
2022-09-14T18:31:27.120Z,23.94
2022-09-14T18:33:59.117Z,23.86
2022-09-14T18:36:29.532Z,23.86
2022-09-14T18:38:58.412Z,23.85
2022-09-14T18:41:28.941Z,23.85
2022-09-14T18:44:00.829Z,23.81
2022-09-14T18:46:28.817Z,23.82
2022-09-14T18:48:58.479Z,23.85
2022-09-14T18:51:27.186Z,23.81
2022-09-14T18:54:03.657Z,23.74
2022-09-14T18:56:34.575Z,23.72
2022-09-14T18:59:03.416Z,23.74
2022-09-14T19:01:33.108Z,23.72
2022-09-14T19:04:02.281Z,23.64
2022-09-14T19:06:29.325Z,23.62
2022-09-14T19:08:56.403Z,23.65
2022-09-14T19:11:27.058Z,23.68
2022-09-14T19:14:09.307Z,23.67
2022-09-14T19:16:41.064Z,23.61
2022-09-14T19:19:10.704Z,23.57
2022-09-14T19:21:40.293Z,23.50
2022-09-14T19:24:13.512Z,23.44
2022-09-14T19:26:50.840Z,23.47
2022-09-14T19:29:23.359Z,23.46
2022-09-14T19:31:52.205Z,23.43
2022-09-14T19:34:20.627Z,23.47
2022-09-14T19:36:47.919Z,23.47
2022-09-14T19:39:15.324Z,23.54
2022-09-14T19:41:42.519Z,23.53
2022-09-14T19:44:13.649Z,23.48
2022-09-14T19:46:40.809Z,23.48
2022-09-14T19:49:14.767Z,23.47
2022-09-14T19:51:42.297Z,23.41
2022-09-14T19:54:09.779Z,23.41
2022-09-14T19:56:37.259Z,23.43
2022-09-14T19:59:07.168Z,23.47
2022-09-14T20:01:36.872Z,23.41
2022-09-14T20:04:05.615Z,23.41
2022-09-14T20:06:40.265Z,23.38
2022-09-14T20:09:15.898Z,23.31
2022-09-14T20:11:45.225Z,23.27
2022-09-14T20:14:15.089Z,23.26
2022-09-14T20:16:50.953Z,23.28
2022-09-14T20:19:23.124Z,23.26
2022-09-14T20:21:51.756Z,23.34
2022-09-14T20:24:25.392Z,23.28
2022-09-14T20:26:55.251Z,23.27
2022-09-14T20:29:23.879Z,23.19
2022-09-14T20:31:51.292Z,23.07
2022-09-14T20:34:20.526Z,23.04
2022-09-14T20:36:49.153Z,22.98
2022-09-14T20:39:16.625Z,22.95
2022-09-14T20:41:44.032Z,22.83
2022-09-14T20:44:11.978Z,22.85
2022-09-14T20:46:41.647Z,22.79
2022-09-14T20:49:14.642Z,22.86
2022-09-14T20:51:42.865Z,22.85
2022-09-14T20:54:13.872Z,22.85
2022-09-14T20:56:41.604Z,22.85
2022-09-14T20:59:12.924Z,22.83
2022-09-14T21:01:42.031Z,22.88
2022-09-14T21:04:14.679Z,22.92
2022-09-14T21:06:44.837Z,22.91
2022-09-14T21:09:13.139Z,22.92
2022-09-14T21:11:41.164Z,22.82
2022-09-14T21:14:08.746Z,22.83
2022-09-14T21:16:42.445Z,22.81
2022-09-14T21:19:15.757Z,22.79
2022-09-14T21:21:43.312Z,22.77
2022-09-14T21:24:13.424Z,22.73
2022-09-14T21:26:42.834Z,22.69
2022-09-14T21:29:17.503Z,22.66
2022-09-14T21:31:44.854Z,22.68
2022-09-14T21:34:12.528Z,22.69
2022-09-14T21:36:42.653Z,22.71
2022-09-14T21:39:15.859Z,22.73
2022-09-14T21:41:44.852Z,22.72
2022-09-14T21:44:13.428Z,22.69
2022-09-14T21:46:41.381Z,22.68
2022-09-14T21:49:14.054Z,22.65
2022-09-14T21:51:41.613Z,22.56
2022-09-14T21:54:10.670Z,22.54
2022-09-14T21:56:40.056Z,22.52
2022-09-14T21:59:10.120Z,22.49
2022-09-14T22:01:37.917Z,22.48
2022-09-14T22:04:09.460Z,22.45
2022-09-14T22:06:36.554Z,22.43
2022-09-14T22:09:03.866Z,22.44
2022-09-14T22:11:34.707Z,22.47
2022-09-14T22:14:04.815Z,22.45
2022-09-14T22:16:35.040Z,22.43
2022-09-14T22:19:05.435Z,22.41
2022-09-14T22:21:35.703Z,22.41
2022-09-14T22:24:05.083Z,22.40
2022-09-14T22:26:36.133Z,22.34
2022-09-14T22:29:04.437Z,22.35
2022-09-14T22:31:32.603Z,22.34
2022-09-14T22:33:59.767Z,22.33
2022-09-14T22:36:27.631Z,22.31
2022-09-14T22:38:56.829Z,22.34
2022-09-14T22:41:26.033Z,22.27
2022-09-14T22:43:54.009Z,22.25
2022-09-14T22:46:22.334Z,22.27
2022-09-14T22:48:50.652Z,22.24
2022-09-14T22:51:20.893Z,22.22
2022-09-14T22:53:48.022Z,22.20
2022-09-14T22:56:41.517Z,22.28
2022-09-14T22:59:10.475Z,22.27
2022-09-14T23:01:40.034Z,22.27
2022-09-14T23:04:10.043Z,22.24
2022-09-14T23:06:42.673Z,22.24
2022-09-14T23:09:12.975Z,22.24
2022-09-14T23:11:40.080Z,22.22
2022-09-14T23:14:07.158Z,22.24
2022-09-14T23:16:34.221Z,22.28
2022-09-14T23:19:04.130Z,22.27
2022-09-14T23:21:31.548Z,22.25
2022-09-14T23:24:02.117Z,22.27
2022-09-14T23:26:30.014Z,22.28
2022-09-14T23:29:02.570Z,22.33
2022-09-14T23:31:31.232Z,22.34
2022-09-14T23:34:00.599Z,22.35
2022-09-14T23:36:28.440Z,22.38
2022-09-14T23:38:55.699Z,22.43
2022-09-14T23:41:25.650Z,22.44
2022-09-14T23:43:52.979Z,22.40
2022-09-14T23:46:20.960Z,22.38
2022-09-14T23:48:49.378Z,22.40
2022-09-14T23:51:16.799Z,22.40
2022-09-14T23:53:43.947Z,22.35
2022-09-14T23:56:11.727Z,22.40
2022-09-14T23:58:40.867Z,22.49
